sensor_id;sensor_type;location;lat;lon;timestamp;P1;durP1;ratioP1;P2;durP2;ratioP2
4563;SDS011;2294;51.818;8.484;2023-07-31T00:01:58;4.53;;;1.70;;
4563;SDS011;2294;51.818;8.484;2023-07-31T00:04:25;4.53;;;1.50;;
4563;SDS011;2294;51.818;8.484;2023-07-31T00:06:52;7.07;;;1.80;;
4563;SDS011;2294;51.818;8.484;2023-07-31T00:09:19;6.30;;;1.70;;
4563;SDS011;2294;51.818;8.484;2023-07-31T00:11:46;5.90;;;1.70;;
4563;SDS011;2294;51.818;8.484;2023-07-31T00:14:14;5.40;;;1.70;;
4563;SDS011;2294;51.818;8.484;2023-07-31T00:16:41;4.10;;;1.60;;
4563;SDS011;2294;51.818;8.484;2023-07-31T00:19:08;4.80;;;2.00;;
4563;SDS011;2294;51.818;8.484;2023-07-31T00:21:34;5.83;;;1.83;;
4563;SDS011;2294;51.818;8.484;2023-07-31T00:24:01;4.67;;;1.90;;
4563;SDS011;2294;51.818;8.484;2023-07-31T00:26:28;5.07;;;1.77;;
4563;SDS011;2294;51.818;8.484;2023-07-31T00:28:55;5.50;;;1.93;;
4563;SDS011;2294;51.818;8.484;2023-07-31T00:31:23;4.97;;;1.80;;
4563;SDS011;2294;51.818;8.484;2023-07-31T00:33:50;4.23;;;1.70;;
4563;SDS011;2294;51.818;8.484;2023-07-31T00:36:17;6.83;;;2.57;;
4563;SDS011;2294;51.818;8.484;2023-07-31T00:38:44;5.23;;;1.90;;
4563;SDS011;2294;51.818;8.484;2023-07-31T00:41:11;5.80;;;2.13;;
4563;SDS011;2294;51.818;8.484;2023-07-31T00:43:37;6.50;;;1.90;;
4563;SDS011;2294;51.818;8.484;2023-07-31T00:46:04;7.00;;;2.30;;
4563;SDS011;2294;51.818;8.484;2023-07-31T00:48:33;5.57;;;2.50;;
4563;SDS011;2294;51.818;8.484;2023-07-31T00:51:01;8.20;;;2.13;;
4563;SDS011;2294;51.818;8.484;2023-07-31T00:53:28;5.50;;;1.80;;
4563;SDS011;2294;51.818;8.484;2023-07-31T00:55:55;4.70;;;1.83;;
4563;SDS011;2294;51.818;8.484;2023-07-31T00:58:22;4.70;;;2.00;;
4563;SDS011;2294;51.818;8.484;2023-07-31T01:00:49;4.97;;;1.87;;
4563;SDS011;2294;51.818;8.484;2023-07-31T01:03:16;4.43;;;1.47;;
4563;SDS011;2294;51.818;8.484;2023-07-31T01:05:48;4.70;;;1.60;;
4563;SDS011;2294;51.818;8.484;2023-07-31T01:08:22;4.10;;;1.47;;
4563;SDS011;2294;51.818;8.484;2023-07-31T01:10:56;11.53;;;2.03;;
4563;SDS011;2294;51.818;8.484;2023-07-31T01:13:31;4.80;;;1.83;;
4563;SDS011;2294;51.818;8.484;2023-07-31T01:15:58;5.07;;;1.90;;
4563;SDS011;2294;51.818;8.484;2023-07-31T01:18:25;4.20;;;1.60;;
4563;SDS011;2294;51.818;8.484;2023-07-31T01:20:54;4.33;;;1.80;;
4563;SDS011;2294;51.818;8.484;2023-07-31T01:23:35;4.73;;;1.67;;
4563;SDS011;2294;51.818;8.484;2023-07-31T01:26:22;4.50;;;1.60;;
4563;SDS011;2294;51.818;8.484;2023-07-31T01:28:53;4.47;;;1.50;;
4563;SDS011;2294;51.818;8.484;2023-07-31T01:31:25;4.50;;;1.57;;
4563;SDS011;2294;51.818;8.484;2023-07-31T01:33:53;5.03;;;1.87;;
4563;SDS011;2294;51.818;8.484;2023-07-31T01:36:22;4.50;;;1.57;;
4563;SDS011;2294;51.818;8.484;2023-07-31T01:38:49;6.20;;;1.87;;
4563;SDS011;2294;51.818;8.484;2023-07-31T01:41:16;5.13;;;2.10;;
4563;SDS011;2294;51.818;8.484;2023-07-31T01:43:45;4.77;;;1.87;;
4563;SDS011;2294;51.818;8.484;2023-07-31T01:46:12;5.30;;;2.00;;
4563;SDS011;2294;51.818;8.484;2023-07-31T01:48:39;5.23;;;1.90;;
4563;SDS011;2294;51.818;8.484;2023-07-31T01:51:06;5.27;;;2.17;;
4563;SDS011;2294;51.818;8.484;2023-07-31T01:53:33;6.40;;;1.93;;
4563;SDS011;2294;51.818;8.484;2023-07-31T01:55:59;4.63;;;1.83;;
4563;SDS011;2294;51.818;8.484;2023-07-31T01:58:26;5.27;;;2.00;;
4563;SDS011;2294;51.818;8.484;2023-07-31T02:00:54;5.53;;;1.83;;
4563;SDS011;2294;51.818;8.484;2023-07-31T02:03:22;4.97;;;1.70;;
4563;SDS011;2294;51.818;8.484;2023-07-31T02:05:49;5.80;;;1.97;;
4563;SDS011;2294;51.818;8.484;2023-07-31T02:08:16;5.67;;;1.90;;
4563;SDS011;2294;51.818;8.484;2023-07-31T02:10:43;6.77;;;2.03;;
4563;SDS011;2294;51.818;8.484;2023-07-31T02:13:10;5.00;;;1.80;;
4563;SDS011;2294;51.818;8.484;2023-07-31T02:15:37;4.37;;;1.60;;
4563;SDS011;2294;51.818;8.484;2023-07-31T02:18:05;4.73;;;1.83;;
4563;SDS011;2294;51.818;8.484;2023-07-31T02:20:33;5.60;;;1.90;;
4563;SDS011;2294;51.818;8.484;2023-07-31T02:23:01;5.73;;;1.80;;
4563;SDS011;2294;51.818;8.484;2023-07-31T02:25:28;6.07;;;1.80;;
4563;SDS011;2294;51.818;8.484;2023-07-31T02:27:55;5.20;;;1.63;;
4563;SDS011;2294;51.818;8.484;2023-07-31T02:30:22;4.73;;;1.90;;
4563;SDS011;2294;51.818;8.484;2023-07-31T02:32:49;4.93;;;1.60;;
4563;SDS011;2294;51.818;8.484;2023-07-31T02:35:17;5.40;;;1.70;;
4563;SDS011;2294;51.818;8.484;2023-07-31T02:37:44;4.20;;;1.63;;
4563;SDS011;2294;51.818;8.484;2023-07-31T02:40:11;4.83;;;1.73;;
4563;SDS011;2294;51.818;8.484;2023-07-31T02:42:38;5.43;;;1.90;;
4563;SDS011;2294;51.818;8.484;2023-07-31T02:45:05;5.57;;;2.13;;
4563;SDS011;2294;51.818;8.484;2023-07-31T02:47:33;5.57;;;2.00;;
4563;SDS011;2294;51.818;8.484;2023-07-31T02:50:00;6.30;;;2.03;;
4563;SDS011;2294;51.818;8.484;2023-07-31T02:52:29;7.07;;;2.90;;
4563;SDS011;2294;51.818;8.484;2023-07-31T02:54:56;6.50;;;2.57;;
4563;SDS011;2294;51.818;8.484;2023-07-31T02:57:23;8.80;;;3.67;;
4563;SDS011;2294;51.818;8.484;2023-07-31T02:59:50;9.53;;;3.90;;
4563;SDS011;2294;51.818;8.484;2023-07-31T03:02:17;8.83;;;4.27;;
4563;SDS011;2294;51.818;8.484;2023-07-31T03:04:43;10.50;;;4.47;;
4563;SDS011;2294;51.818;8.484;2023-07-31T03:07:10;10.40;;;4.77;;
4563;SDS011;2294;51.818;8.484;2023-07-31T03:09:39;13.40;;;4.60;;
4563;SDS011;2294;51.818;8.484;2023-07-31T03:12:06;13.20;;;4.60;;
4563;SDS011;2294;51.818;8.484;2023-07-31T03:14:34;17.20;;;5.00;;
4563;SDS011;2294;51.818;8.484;2023-07-31T03:17:00;16.83;;;6.17;;
4563;SDS011;2294;51.818;8.484;2023-07-31T03:19:29;13.97;;;6.60;;
4563;SDS011;2294;51.818;8.484;2023-07-31T03:21:57;13.27;;;6.00;;
4563;SDS011;2294;51.818;8.484;2023-07-31T03:24:23;16.17;;;5.23;;
4563;SDS011;2294;51.818;8.484;2023-07-31T03:26:52;17.70;;;5.60;;
4563;SDS011;2294;51.818;8.484;2023-07-31T03:29:19;22.67;;;6.00;;
4563;SDS011;2294;51.818;8.484;2023-07-31T03:31:46;14.73;;;5.90;;
4563;SDS011;2294;51.818;8.484;2023-07-31T03:34:12;10.30;;;5.43;;
4563;SDS011;2294;51.818;8.484;2023-07-31T03:36:39;14.77;;;5.63;;
4563;SDS011;2294;51.818;8.484;2023-07-31T03:39:06;18.80;;;6.10;;
4563;SDS011;2294;51.818;8.484;2023-07-31T03:41:33;13.83;;;6.47;;
4563;SDS011;2294;51.818;8.484;2023-07-31T03:44:01;13.50;;;6.33;;
4563;SDS011;2294;51.818;8.484;2023-07-31T03:46:28;13.70;;;5.90;;
4563;SDS011;2294;51.818;8.484;2023-07-31T03:48:55;13.67;;;6.90;;
4563;SDS011;2294;51.818;8.484;2023-07-31T03:51:22;15.97;;;5.93;;
4563;SDS011;2294;51.818;8.484;2023-07-31T03:53:49;17.33;;;6.50;;
4563;SDS011;2294;51.818;8.484;2023-07-31T03:56:16;13.70;;;5.20;;
4563;SDS011;2294;51.818;8.484;2023-07-31T03:58:43;11.87;;;4.80;;
4563;SDS011;2294;51.818;8.484;2023-07-31T04:01:11;22.60;;;5.07;;
4563;SDS011;2294;51.818;8.484;2023-07-31T04:03:38;14.10;;;5.07;;
4563;SDS011;2294;51.818;8.484;2023-07-31T04:06:04;13.97;;;5.00;;
4563;SDS011;2294;51.818;8.484;2023-07-31T04:08:32;14.13;;;5.23;;
4563;SDS011;2294;51.818;8.484;2023-07-31T04:10:59;11.30;;;4.77;;
4563;SDS011;2294;51.818;8.484;2023-07-31T04:13:25;18.87;;;5.33;;
4563;SDS011;2294;51.818;8.484;2023-07-31T04:15:53;16.63;;;4.77;;
4563;SDS011;2294;51.818;8.484;2023-07-31T04:18:21;19.60;;;5.90;;
4563;SDS011;2294;51.818;8.484;2023-07-31T04:20:50;16.67;;;5.60;;
4563;SDS011;2294;51.818;8.484;2023-07-31T04:23:17;16.87;;;5.90;;
4563;SDS011;2294;51.818;8.484;2023-07-31T04:25:44;17.43;;;5.60;;
4563;SDS011;2294;51.818;8.484;2023-07-31T04:28:11;12.77;;;5.70;;
4563;SDS011;2294;51.818;8.484;2023-07-31T04:30:38;13.93;;;6.00;;
4563;SDS011;2294;51.818;8.484;2023-07-31T04:33:05;22.20;;;5.87;;
4563;SDS011;2294;51.818;8.484;2023-07-31T04:35:33;17.63;;;5.43;;
4563;SDS011;2294;51.818;8.484;2023-07-31T04:38:00;11.83;;;4.97;;
4563;SDS011;2294;51.818;8.484;2023-07-31T04:40:27;18.50;;;5.80;;
4563;SDS011;2294;51.818;8.484;2023-07-31T04:42:54;12.60;;;5.80;;
4563;SDS011;2294;51.818;8.484;2023-07-31T04:45:21;15.53;;;5.80;;
4563;SDS011;2294;51.818;8.484;2023-07-31T04:47:48;12.37;;;5.90;;
4563;SDS011;2294;51.818;8.484;2023-07-31T04:50:15;15.53;;;5.43;;
4563;SDS011;2294;51.818;8.484;2023-07-31T04:52:43;15.63;;;6.33;;
4563;SDS011;2294;51.818;8.484;2023-07-31T04:55:10;20.70;;;5.27;;
4563;SDS011;2294;51.818;8.484;2023-07-31T04:57:37;16.70;;;5.33;;
4563;SDS011;2294;51.818;8.484;2023-07-31T05:00:04;18.13;;;6.23;;
4563;SDS011;2294;51.818;8.484;2023-07-31T05:02:32;19.07;;;5.60;;
4563;SDS011;2294;51.818;8.484;2023-07-31T05:04:59;15.23;;;5.40;;
4563;SDS011;2294;51.818;8.484;2023-07-31T05:07:26;17.23;;;5.00;;
4563;SDS011;2294;51.818;8.484;2023-07-31T05:09:54;13.07;;;4.73;;
4563;SDS011;2294;51.818;8.484;2023-07-31T05:12:21;16.80;;;5.27;;
4563;SDS011;2294;51.818;8.484;2023-07-31T05:14:48;15.53;;;4.93;;
4563;SDS011;2294;51.818;8.484;2023-07-31T05:17:15;19.17;;;5.60;;
4563;SDS011;2294;51.818;8.484;2023-07-31T05:19:42;18.80;;;4.97;;
4563;SDS011;2294;51.818;8.484;2023-07-31T05:22:09;13.20;;;4.83;;
4563;SDS011;2294;51.818;8.484;2023-07-31T05:24:36;17.87;;;4.80;;
4563;SDS011;2294;51.818;8.484;2023-07-31T05:27:04;18.90;;;5.67;;
4563;SDS011;2294;51.818;8.484;2023-07-31T05:29:32;12.13;;;4.67;;
4563;SDS011;2294;51.818;8.484;2023-07-31T05:31:59;12.60;;;4.27;;
4563;SDS011;2294;51.818;8.484;2023-07-31T05:34:25;16.17;;;4.47;;
4563;SDS011;2294;51.818;8.484;2023-07-31T05:36:52;11.70;;;4.43;;
4563;SDS011;2294;51.818;8.484;2023-07-31T05:39:19;13.43;;;4.50;;
4563;SDS011;2294;51.818;8.484;2023-07-31T05:41:46;14.13;;;4.93;;
4563;SDS011;2294;51.818;8.484;2023-07-31T05:44:15;12.07;;;4.33;;
4563;SDS011;2294;51.818;8.484;2023-07-31T05:46:42;16.33;;;5.40;;
4563;SDS011;2294;51.818;8.484;2023-07-31T05:49:09;13.13;;;4.97;;
4563;SDS011;2294;51.818;8.484;2023-07-31T05:51:36;12.77;;;4.50;;
4563;SDS011;2294;51.818;8.484;2023-07-31T05:54:03;14.77;;;4.23;;
4563;SDS011;2294;51.818;8.484;2023-07-31T05:56:30;15.97;;;4.90;;
4563;SDS011;2294;51.818;8.484;2023-07-31T05:58:58;16.33;;;5.30;;
4563;SDS011;2294;51.818;8.484;2023-07-31T06:01:26;13.50;;;4.80;;
4563;SDS011;2294;51.818;8.484;2023-07-31T06:03:53;15.33;;;4.93;;
4563;SDS011;2294;51.818;8.484;2023-07-31T06:06:20;14.93;;;5.00;;
4563;SDS011;2294;51.818;8.484;2023-07-31T06:08:47;14.77;;;4.37;;
4563;SDS011;2294;51.818;8.484;2023-07-31T06:11:15;13.47;;;4.50;;
4563;SDS011;2294;51.818;8.484;2023-07-31T06:13:41;12.30;;;5.03;;
4563;SDS011;2294;51.818;8.484;2023-07-31T06:16:09;13.07;;;5.67;;
4563;SDS011;2294;51.818;8.484;2023-07-31T06:18:38;13.60;;;5.20;;
4563;SDS011;2294;51.818;8.484;2023-07-31T06:21:04;18.03;;;4.80;;
4563;SDS011;2294;51.818;8.484;2023-07-31T06:23:31;15.40;;;6.53;;
4563;SDS011;2294;51.818;8.484;2023-07-31T06:25:58;18.73;;;6.27;;
4563;SDS011;2294;51.818;8.484;2023-07-31T06:28:27;16.10;;;4.70;;
4563;SDS011;2294;51.818;8.484;2023-07-31T06:30:55;17.63;;;5.13;;
4563;SDS011;2294;51.818;8.484;2023-07-31T06:33:22;16.53;;;4.97;;
4563;SDS011;2294;51.818;8.484;2023-07-31T06:35:50;23.97;;;5.50;;
4563;SDS011;2294;51.818;8.484;2023-07-31T06:38:18;27.27;;;6.10;;
4563;SDS011;2294;51.818;8.484;2023-07-31T06:40:48;16.40;;;5.00;;
4563;SDS011;2294;51.818;8.484;2023-07-31T06:43:15;15.63;;;5.30;;
4563;SDS011;2294;51.818;8.484;2023-07-31T06:45:42;13.60;;;4.37;;
4563;SDS011;2294;51.818;8.484;2023-07-31T06:48:09;21.60;;;5.03;;
4563;SDS011;2294;51.818;8.484;2023-07-31T06:50:36;12.40;;;5.03;;
4563;SDS011;2294;51.818;8.484;2023-07-31T06:53:04;15.67;;;4.23;;
4563;SDS011;2294;51.818;8.484;2023-07-31T06:55:31;16.70;;;5.00;;
4563;SDS011;2294;51.818;8.484;2023-07-31T06:57:58;19.40;;;4.57;;
4563;SDS011;2294;51.818;8.484;2023-07-31T07:00:25;9.37;;;3.57;;
4563;SDS011;2294;51.818;8.484;2023-07-31T07:02:53;11.63;;;4.13;;
4563;SDS011;2294;51.818;8.484;2023-07-31T07:05:20;17.10;;;4.80;;
4563;SDS011;2294;51.818;8.484;2023-07-31T07:07:48;10.57;;;3.43;;
4563;SDS011;2294;51.818;8.484;2023-07-31T07:10:17;11.37;;;4.00;;
4563;SDS011;2294;51.818;8.484;2023-07-31T07:12:45;10.77;;;4.70;;
4563;SDS011;2294;51.818;8.484;2023-07-31T07:15:12;19.50;;;4.43;;
4563;SDS011;2294;51.818;8.484;2023-07-31T07:17:39;14.50;;;4.60;;
4563;SDS011;2294;51.818;8.484;2023-07-31T07:20:06;9.57;;;4.00;;
4563;SDS011;2294;51.818;8.484;2023-07-31T07:22:34;13.37;;;5.13;;
4563;SDS011;2294;51.818;8.484;2023-07-31T07:25:01;11.50;;;3.87;;
4563;SDS011;2294;51.818;8.484;2023-07-31T07:27:29;9.90;;;5.10;;
4563;SDS011;2294;51.818;8.484;2023-07-31T07:29:56;10.90;;;4.50;;
4563;SDS011;2294;51.818;8.484;2023-07-31T07:32:23;11.60;;;4.93;;
4563;SDS011;2294;51.818;8.484;2023-07-31T07:34:50;13.00;;;5.03;;
4563;SDS011;2294;51.818;8.484;2023-07-31T07:37:17;11.90;;;4.93;;
4563;SDS011;2294;51.818;8.484;2023-07-31T07:39:44;21.13;;;4.70;;
4563;SDS011;2294;51.818;8.484;2023-07-31T07:42:11;14.63;;;4.80;;
4563;SDS011;2294;51.818;8.484;2023-07-31T07:44:39;11.70;;;5.70;;
4563;SDS011;2294;51.818;8.484;2023-07-31T07:47:06;15.87;;;5.40;;
4563;SDS011;2294;51.818;8.484;2023-07-31T07:49:33;20.10;;;5.37;;
4563;SDS011;2294;51.818;8.484;2023-07-31T07:52:00;13.97;;;5.57;;
4563;SDS011;2294;51.818;8.484;2023-07-31T07:54:27;16.90;;;5.63;;
4563;SDS011;2294;51.818;8.484;2023-07-31T07:56:54;12.50;;;4.77;;
4563;SDS011;2294;51.818;8.484;2023-07-31T07:59:21;11.80;;;5.73;;
4563;SDS011;2294;51.818;8.484;2023-07-31T08:01:49;18.87;;;5.70;;
4563;SDS011;2294;51.818;8.484;2023-07-31T08:04:16;11.20;;;4.83;;
4563;SDS011;2294;51.818;8.484;2023-07-31T08:06:42;13.97;;;6.03;;
4563;SDS011;2294;51.818;8.484;2023-07-31T08:09:09;17.03;;;6.10;;
4563;SDS011;2294;51.818;8.484;2023-07-31T08:11:36;22.27;;;6.80;;
4563;SDS011;2294;51.818;8.484;2023-07-31T08:14:03;31.47;;;6.27;;
4563;SDS011;2294;51.818;8.484;2023-07-31T08:16:30;16.13;;;6.30;;
4563;SDS011;2294;51.818;8.484;2023-07-31T08:18:58;18.90;;;6.33;;
4563;SDS011;2294;51.818;8.484;2023-07-31T08:21:25;12.33;;;5.87;;
4563;SDS011;2294;51.818;8.484;2023-07-31T08:23:52;15.43;;;6.20;;
4563;SDS011;2294;51.818;8.484;2023-07-31T08:26:20;12.83;;;5.80;;
4563;SDS011;2294;51.818;8.484;2023-07-31T08:28:47;13.60;;;6.03;;
4563;SDS011;2294;51.818;8.484;2023-07-31T08:31:14;14.57;;;5.80;;
4563;SDS011;2294;51.818;8.484;2023-07-31T08:33:41;14.40;;;6.63;;
4563;SDS011;2294;51.818;8.484;2023-07-31T08:36:09;13.00;;;6.97;;
4563;SDS011;2294;51.818;8.484;2023-07-31T08:38:36;19.97;;;6.83;;
4563;SDS011;2294;51.818;8.484;2023-07-31T08:41:03;11.20;;;5.77;;
4563;SDS011;2294;51.818;8.484;2023-07-31T08:43:30;12.50;;;5.90;;
4563;SDS011;2294;51.818;8.484;2023-07-31T08:45:58;13.73;;;5.80;;
4563;SDS011;2294;51.818;8.484;2023-07-31T08:48:25;18.27;;;6.40;;
4563;SDS011;2294;51.818;8.484;2023-07-31T08:50:54;13.47;;;5.97;;
4563;SDS011;2294;51.818;8.484;2023-07-31T08:53:22;10.57;;;5.30;;
4563;SDS011;2294;51.818;8.484;2023-07-31T08:55:49;13.60;;;5.67;;
4563;SDS011;2294;51.818;8.484;2023-07-31T08:58:18;10.40;;;4.93;;
4563;SDS011;2294;51.818;8.484;2023-07-31T09:00:46;11.90;;;5.37;;
4563;SDS011;2294;51.818;8.484;2023-07-31T09:03:14;12.17;;;5.83;;
4563;SDS011;2294;51.818;8.484;2023-07-31T09:05:43;12.30;;;5.63;;
4563;SDS011;2294;51.818;8.484;2023-07-31T09:08:12;12.97;;;4.70;;
4563;SDS011;2294;51.818;8.484;2023-07-31T09:10:42;12.70;;;4.80;;
4563;SDS011;2294;51.818;8.484;2023-07-31T09:13:11;16.83;;;4.73;;
4563;SDS011;2294;51.818;8.484;2023-07-31T09:15:37;13.50;;;4.40;;
4563;SDS011;2294;51.818;8.484;2023-07-31T09:18:06;10.53;;;4.70;;
4563;SDS011;2294;51.818;8.484;2023-07-31T09:20:34;10.67;;;4.40;;
4563;SDS011;2294;51.818;8.484;2023-07-31T09:23:06;9.97;;;5.13;;
4563;SDS011;2294;51.818;8.484;2023-07-31T09:25:34;11.50;;;4.30;;
4563;SDS011;2294;51.818;8.484;2023-07-31T09:28:03;8.63;;;3.60;;
4563;SDS011;2294;51.818;8.484;2023-07-31T09:30:32;11.77;;;4.17;;
4563;SDS011;2294;51.818;8.484;2023-07-31T09:33:11;8.90;;;3.97;;
4563;SDS011;2294;51.818;8.484;2023-07-31T09:35:41;7.30;;;3.80;;
4563;SDS011;2294;51.818;8.484;2023-07-31T09:38:15;11.67;;;4.13;;
4563;SDS011;2294;51.818;8.484;2023-07-31T09:40:43;9.90;;;4.50;;
4563;SDS011;2294;51.818;8.484;2023-07-31T09:43:12;11.03;;;4.20;;
4563;SDS011;2294;51.818;8.484;2023-07-31T09:45:54;12.60;;;4.63;;
4563;SDS011;2294;51.818;8.484;2023-07-31T09:48:23;8.60;;;3.87;;
4563;SDS011;2294;51.818;8.484;2023-07-31T09:50:52;11.23;;;3.90;;
4563;SDS011;2294;51.818;8.484;2023-07-31T09:53:20;9.30;;;4.13;;
4563;SDS011;2294;51.818;8.484;2023-07-31T09:55:56;13.97;;;5.40;;
4563;SDS011;2294;51.818;8.484;2023-07-31T09:58:27;8.67;;;3.67;;
4563;SDS011;2294;51.818;8.484;2023-07-31T10:00:56;7.90;;;3.07;;
4563;SDS011;2294;51.818;8.484;2023-07-31T10:03:24;9.20;;;3.60;;
4563;SDS011;2294;51.818;8.484;2023-07-31T10:05:52;7.93;;;3.30;;
4563;SDS011;2294;51.818;8.484;2023-07-31T10:08:21;11.57;;;3.67;;
4563;SDS011;2294;51.818;8.484;2023-07-31T10:10:58;7.40;;;2.80;;
4563;SDS011;2294;51.818;8.484;2023-07-31T10:13:28;7.13;;;2.53;;
4563;SDS011;2294;51.818;8.484;2023-07-31T10:15:58;7.60;;;2.57;;
4563;SDS011;2294;51.818;8.484;2023-07-31T10:18:26;7.10;;;2.60;;
4563;SDS011;2294;51.818;8.484;2023-07-31T10:20:53;6.80;;;2.77;;
4563;SDS011;2294;51.818;8.484;2023-07-31T10:23:21;5.50;;;2.33;;
4563;SDS011;2294;51.818;8.484;2023-07-31T10:25:50;8.60;;;2.73;;
4563;SDS011;2294;51.818;8.484;2023-07-31T10:28:19;7.10;;;2.70;;
4563;SDS011;2294;51.818;8.484;2023-07-31T10:30:48;5.90;;;2.73;;
4563;SDS011;2294;51.818;8.484;2023-07-31T10:33:16;7.80;;;2.70;;
4563;SDS011;2294;51.818;8.484;2023-07-31T10:35:46;7.60;;;2.50;;
4563;SDS011;2294;51.818;8.484;2023-07-31T10:38:13;9.47;;;2.43;;
4563;SDS011;2294;51.818;8.484;2023-07-31T10:40:41;5.23;;;2.40;;
4563;SDS011;2294;51.818;8.484;2023-07-31T10:43:08;6.20;;;2.30;;
4563;SDS011;2294;51.818;8.484;2023-07-31T10:45:37;4.17;;;1.70;;
4563;SDS011;2294;51.818;8.484;2023-07-31T10:48:06;5.73;;;2.33;;
4563;SDS011;2294;51.818;8.484;2023-07-31T10:50:38;6.07;;;2.17;;
4563;SDS011;2294;51.818;8.484;2023-07-31T10:53:22;4.43;;;1.53;;
4563;SDS011;2294;51.818;8.484;2023-07-31T10:55:50;6.03;;;2.03;;
4563;SDS011;2294;51.818;8.484;2023-07-31T10:58:18;7.20;;;1.97;;
4563;SDS011;2294;51.818;8.484;2023-07-31T11:00:46;5.97;;;2.37;;
4563;SDS011;2294;51.818;8.484;2023-07-31T11:03:15;6.63;;;2.37;;
4563;SDS011;2294;51.818;8.484;2023-07-31T11:05:49;5.80;;;1.80;;
4563;SDS011;2294;51.818;8.484;2023-07-31T11:08:19;4.63;;;1.80;;
4563;SDS011;2294;51.818;8.484;2023-07-31T11:10:48;5.27;;;2.00;;
4563;SDS011;2294;51.818;8.484;2023-07-31T11:13:17;5.03;;;1.67;;
4563;SDS011;2294;51.818;8.484;2023-07-31T11:15:44;5.80;;;3.00;;
4563;SDS011;2294;51.818;8.484;2023-07-31T11:18:11;8.63;;;2.10;;
4563;SDS011;2294;51.818;8.484;2023-07-31T11:20:40;4.53;;;1.60;;
4563;SDS011;2294;51.818;8.484;2023-07-31T11:23:08;6.00;;;2.13;;
4563;SDS011;2294;51.818;8.484;2023-07-31T11:25:36;5.80;;;1.87;;
4563;SDS011;2294;51.818;8.484;2023-07-31T11:28:05;6.20;;;2.37;;
4563;SDS011;2294;51.818;8.484;2023-07-31T11:30:33;4.77;;;1.80;;
4563;SDS011;2294;51.818;8.484;2023-07-31T11:33:01;5.30;;;2.07;;
4563;SDS011;2294;51.818;8.484;2023-07-31T11:35:29;5.40;;;1.83;;
4563;SDS011;2294;51.818;8.484;2023-07-31T11:37:58;4.73;;;1.87;;
4563;SDS011;2294;51.818;8.484;2023-07-31T11:40:26;5.67;;;1.80;;
4563;SDS011;2294;51.818;8.484;2023-07-31T11:42:55;9.80;;;2.60;;
4563;SDS011;2294;51.818;8.484;2023-07-31T11:45:24;4.67;;;2.20;;
4563;SDS011;2294;51.818;8.484;2023-07-31T11:47:52;6.67;;;1.87;;
4563;SDS011;2294;51.818;8.484;2023-07-31T11:50:21;5.07;;;1.90;;
4563;SDS011;2294;51.818;8.484;2023-07-31T11:52:50;4.67;;;1.87;;
4563;SDS011;2294;51.818;8.484;2023-07-31T11:55:23;8.30;;;1.93;;
4563;SDS011;2294;51.818;8.484;2023-07-31T11:57:51;8.30;;;1.77;;
4563;SDS011;2294;51.818;8.484;2023-07-31T12:00:20;5.40;;;2.23;;
4563;SDS011;2294;51.818;8.484;2023-07-31T12:02:47;4.37;;;1.67;;
4563;SDS011;2294;51.818;8.484;2023-07-31T12:05:14;6.80;;;1.70;;
4563;SDS011;2294;51.818;8.484;2023-07-31T12:07:46;4.97;;;1.70;;
4563;SDS011;2294;51.818;8.484;2023-07-31T12:10:28;7.80;;;1.60;;
4563;SDS011;2294;51.818;8.484;2023-07-31T12:12:56;5.20;;;1.67;;
4563;SDS011;2294;51.818;8.484;2023-07-31T12:15:28;4.50;;;1.53;;
4563;SDS011;2294;51.818;8.484;2023-07-31T12:17:59;5.83;;;1.33;;
4563;SDS011;2294;51.818;8.484;2023-07-31T12:20:26;4.13;;;1.30;;
4563;SDS011;2294;51.818;8.484;2023-07-31T12:22:55;4.67;;;1.40;;
4563;SDS011;2294;51.818;8.484;2023-07-31T12:25:23;11.33;;;1.80;;
4563;SDS011;2294;51.818;8.484;2023-07-31T12:27:56;3.87;;;1.33;;
4563;SDS011;2294;51.818;8.484;2023-07-31T12:30:27;4.77;;;1.50;;
4563;SDS011;2294;51.818;8.484;2023-07-31T12:32:54;3.70;;;1.20;;
4563;SDS011;2294;51.818;8.484;2023-07-31T12:35:21;5.10;;;1.73;;
4563;SDS011;2294;51.818;8.484;2023-07-31T12:37:48;4.10;;;1.50;;
4563;SDS011;2294;51.818;8.484;2023-07-31T12:40:15;5.10;;;1.40;;
4563;SDS011;2294;51.818;8.484;2023-07-31T12:42:43;4.60;;;1.40;;
4563;SDS011;2294;51.818;8.484;2023-07-31T12:45:10;7.53;;;2.03;;
4563;SDS011;2294;51.818;8.484;2023-07-31T12:47:37;4.10;;;1.40;;
4563;SDS011;2294;51.818;8.484;2023-07-31T12:50:04;4.10;;;1.67;;
4563;SDS011;2294;51.818;8.484;2023-07-31T12:52:32;4.57;;;1.53;;
4563;SDS011;2294;51.818;8.484;2023-07-31T12:54:59;6.37;;;1.70;;
4563;SDS011;2294;51.818;8.484;2023-07-31T12:57:26;5.10;;;2.00;;
4563;SDS011;2294;51.818;8.484;2023-07-31T12:59:54;5.40;;;1.90;;
4563;SDS011;2294;51.818;8.484;2023-07-31T13:02:21;4.90;;;2.00;;
4563;SDS011;2294;51.818;8.484;2023-07-31T13:04:49;7.27;;;2.43;;
4563;SDS011;2294;51.818;8.484;2023-07-31T13:07:16;4.73;;;2.27;;
4563;SDS011;2294;51.818;8.484;2023-07-31T13:09:43;7.40;;;2.90;;
4563;SDS011;2294;51.818;8.484;2023-07-31T13:12:10;8.67;;;2.00;;
4563;SDS011;2294;51.818;8.484;2023-07-31T13:14:37;5.13;;;2.23;;
4563;SDS011;2294;51.818;8.484;2023-07-31T13:17:05;5.40;;;2.27;;
4563;SDS011;2294;51.818;8.484;2023-07-31T13:19:32;4.93;;;2.40;;
4563;SDS011;2294;51.818;8.484;2023-07-31T13:21:59;4.67;;;2.00;;
4563;SDS011;2294;51.818;8.484;2023-07-31T13:24:26;4.93;;;2.30;;
4563;SDS011;2294;51.818;8.484;2023-07-31T13:26:53;5.67;;;2.63;;
4563;SDS011;2294;51.818;8.484;2023-07-31T13:29:19;9.63;;;2.20;;
4563;SDS011;2294;51.818;8.484;2023-07-31T13:31:47;4.60;;;2.40;;
4563;SDS011;2294;51.818;8.484;2023-07-31T13:34:15;8.63;;;1.90;;
4563;SDS011;2294;51.818;8.484;2023-07-31T13:36:44;6.80;;;1.90;;
4563;SDS011;2294;51.818;8.484;2023-07-31T13:39:11;4.90;;;2.00;;
4563;SDS011;2294;51.818;8.484;2023-07-31T13:41:38;7.10;;;1.73;;
4563;SDS011;2294;51.818;8.484;2023-07-31T13:44:05;5.10;;;2.00;;
4563;SDS011;2294;51.818;8.484;2023-07-31T13:46:31;5.70;;;2.43;;
4563;SDS011;2294;51.818;8.484;2023-07-31T13:48:58;9.50;;;3.43;;
4563;SDS011;2294;51.818;8.484;2023-07-31T13:51:27;6.20;;;2.33;;
4563;SDS011;2294;51.818;8.484;2023-07-31T13:53:54;5.10;;;2.13;;
4563;SDS011;2294;51.818;8.484;2023-07-31T13:56:21;4.97;;;2.00;;
4563;SDS011;2294;51.818;8.484;2023-07-31T13:58:48;4.57;;;2.00;;
4563;SDS011;2294;51.818;8.484;2023-07-31T14:01:15;5.77;;;2.20;;
4563;SDS011;2294;51.818;8.484;2023-07-31T14:03:42;5.17;;;1.60;;
4563;SDS011;2294;51.818;8.484;2023-07-31T14:06:08;9.90;;;2.33;;
4563;SDS011;2294;51.818;8.484;2023-07-31T14:08:37;4.97;;;2.07;;
4563;SDS011;2294;51.818;8.484;2023-07-31T14:11:04;4.30;;;1.83;;
4563;SDS011;2294;51.818;8.484;2023-07-31T14:13:31;5.10;;;2.07;;
4563;SDS011;2294;51.818;8.484;2023-07-31T14:16:00;5.40;;;2.17;;
4563;SDS011;2294;51.818;8.484;2023-07-31T14:18:27;5.70;;;1.90;;
4563;SDS011;2294;51.818;8.484;2023-07-31T14:20:53;5.10;;;2.00;;
4563;SDS011;2294;51.818;8.484;2023-07-31T14:23:20;6.63;;;1.90;;
4563;SDS011;2294;51.818;8.484;2023-07-31T14:25:49;6.03;;;1.97;;
4563;SDS011;2294;51.818;8.484;2023-07-31T14:28:15;6.40;;;2.30;;
4563;SDS011;2294;51.818;8.484;2023-07-31T14:30:42;7.10;;;1.70;;
4563;SDS011;2294;51.818;8.484;2023-07-31T14:33:09;4.47;;;1.57;;
4563;SDS011;2294;51.818;8.484;2023-07-31T14:35:36;5.70;;;1.80;;
4563;SDS011;2294;51.818;8.484;2023-07-31T14:38:03;6.27;;;1.87;;
4563;SDS011;2294;51.818;8.484;2023-07-31T14:40:30;4.80;;;2.00;;
4563;SDS011;2294;51.818;8.484;2023-07-31T14:42:58;4.57;;;1.77;;
4563;SDS011;2294;51.818;8.484;2023-07-31T14:45:25;4.30;;;1.50;;
4563;SDS011;2294;51.818;8.484;2023-07-31T14:47:52;4.73;;;1.70;;
4563;SDS011;2294;51.818;8.484;2023-07-31T14:50:19;4.70;;;1.50;;
4563;SDS011;2294;51.818;8.484;2023-07-31T14:53:00;7.30;;;1.97;;
4563;SDS011;2294;51.818;8.484;2023-07-31T14:55:27;4.80;;;1.70;;
4563;SDS011;2294;51.818;8.484;2023-07-31T14:57:54;5.17;;;1.60;;
4563;SDS011;2294;51.818;8.484;2023-07-31T15:00:23;4.30;;;1.60;;
4563;SDS011;2294;51.818;8.484;2023-07-31T15:02:51;6.50;;;1.93;;
4563;SDS011;2294;51.818;8.484;2023-07-31T15:05:18;4.60;;;1.67;;
4563;SDS011;2294;51.818;8.484;2023-07-31T15:07:45;4.47;;;1.90;;
4563;SDS011;2294;51.818;8.484;2023-07-31T15:10:12;4.70;;;1.70;;
4563;SDS011;2294;51.818;8.484;2023-07-31T15:12:39;6.53;;;1.77;;
4563;SDS011;2294;51.818;8.484;2023-07-31T15:15:10;5.00;;;1.53;;